sensor_id;sensor_type;location;lat;lon;timestamp;noise_LAeq;noise_LA_min;noise_LA_max;noise_LA01;noise_LA95
72805;Laerm;60920;48.748;19.142;2023-12-07T00:00:02;30.45;28.97;31.64;;
72805;Laerm;60920;48.748;19.142;2023-12-07T00:02:28;30.43;28.90;31.68;;
72805;Laerm;60920;48.748;19.142;2023-12-07T00:04:53;30.39;29.01;31.50;;
72805;Laerm;60920;48.748;19.142;2023-12-07T00:07:18;30.41;29.11;31.86;;
72805;Laerm;60920;48.748;19.142;2023-12-07T00:09:43;30.42;29.03;31.85;;
72805;Laerm;60920;48.748;19.142;2023-12-07T00:12:09;30.43;28.96;31.69;;
72805;Laerm;60920;48.748;19.142;2023-12-07T00:14:34;30.44;29.17;31.91;;
72805;Laerm;60920;48.748;19.142;2023-12-07T00:16:59;30.46;29.11;31.63;;
72805;Laerm;60920;48.748;19.142;2023-12-07T00:19:24;30.44;29.23;31.64;;
72805;Laerm;60920;48.748;19.142;2023-12-07T00:21:50;30.43;29.19;31.75;;
72805;Laerm;60920;48.748;19.142;2023-12-07T00:24:15;30.44;29.04;31.82;;
72805;Laerm;60920;48.748;19.142;2023-12-07T00:26:40;30.44;29.02;31.66;;
72805;Laerm;60920;48.748;19.142;2023-12-07T00:29:05;30.44;29.09;31.67;;
72805;Laerm;60920;48.748;19.142;2023-12-07T00:31:31;30.46;29.18;31.92;;
72805;Laerm;60920;48.748;19.142;2023-12-07T00:33:56;30.45;29.28;31.78;;
72805;Laerm;60920;48.748;19.142;2023-12-07T00:36:21;30.44;29.17;31.67;;
72805;Laerm;60920;48.748;19.142;2023-12-07T00:38:47;30.45;29.10;31.54;;
72805;Laerm;60920;48.748;19.142;2023-12-07T00:41:12;30.44;29.25;31.63;;
72805;Laerm;60920;48.748;19.142;2023-12-07T00:43:37;30.45;29.17;31.64;;
72805;Laerm;60920;48.748;19.142;2023-12-07T00:46:03;30.45;28.94;31.62;;
72805;Laerm;60920;48.748;19.142;2023-12-07T00:48:28;30.45;29.14;31.60;;
72805;Laerm;60920;48.748;19.142;2023-12-07T00:50:53;30.45;28.96;36.86;;
72805;Laerm;60920;48.748;19.142;2023-12-07T00:53:18;30.43;28.97;31.66;;
72805;Laerm;60920;48.748;19.142;2023-12-07T00:55:44;30.43;29.12;31.59;;
72805;Laerm;60920;48.748;19.142;2023-12-07T00:58:09;30.41;28.99;31.68;;
72805;Laerm;60920;48.748;19.142;2023-12-07T01:00:34;30.44;29.09;31.63;;
72805;Laerm;60920;48.748;19.142;2023-12-07T01:03:00;30.45;28.97;31.98;;
72805;Laerm;60920;48.748;19.142;2023-12-07T01:05:25;30.46;28.98;31.74;;
72805;Laerm;60920;48.748;19.142;2023-12-07T01:07:50;30.46;29.11;31.85;;
72805;Laerm;60920;48.748;19.142;2023-12-07T01:10:16;30.45;29.22;32.06;;
72805;Laerm;60920;48.748;19.142;2023-12-07T01:12:41;30.55;29.32;49.94;;
72805;Laerm;60920;48.748;19.142;2023-12-07T01:15:06;30.46;29.23;31.73;;
72805;Laerm;60920;48.748;19.142;2023-12-07T01:17:32;30.46;29.00;31.64;;
72805;Laerm;60920;48.748;19.142;2023-12-07T01:19:57;30.46;29.00;31.69;;
72805;Laerm;60920;48.748;19.142;2023-12-07T01:22:22;30.47;29.24;31.79;;
72805;Laerm;60920;48.748;19.142;2023-12-07T01:24:48;30.47;29.18;31.67;;
72805;Laerm;60920;48.748;19.142;2023-12-07T01:27:13;30.45;28.96;31.72;;
72805;Laerm;60920;48.748;19.142;2023-12-07T01:29:38;30.46;29.23;31.82;;
72805;Laerm;60920;48.748;19.142;2023-12-07T01:32:04;30.44;29.05;31.75;;
72805;Laerm;60920;48.748;19.142;2023-12-07T01:34:30;30.43;29.11;31.56;;
72805;Laerm;60920;48.748;19.142;2023-12-07T01:36:56;30.42;29.13;31.79;;
72805;Laerm;60920;48.748;19.142;2023-12-07T01:39:21;30.42;29.05;31.74;;
72805;Laerm;60920;48.748;19.142;2023-12-07T01:41:47;30.47;29.22;31.58;;
72805;Laerm;60920;48.748;19.142;2023-12-07T01:44:12;30.49;29.31;31.79;;
72805;Laerm;60920;48.748;19.142;2023-12-07T01:46:37;30.48;29.23;31.59;;
72805;Laerm;60920;48.748;19.142;2023-12-07T01:49:03;30.48;29.16;31.71;;
72805;Laerm;60920;48.748;19.142;2023-12-07T01:51:28;30.48;29.18;31.68;;
72805;Laerm;60920;48.748;19.142;2023-12-07T01:53:54;30.46;29.21;31.60;;
72805;Laerm;60920;48.748;19.142;2023-12-07T01:56:19;30.45;29.04;31.83;;
72805;Laerm;60920;48.748;19.142;2023-12-07T01:58:45;30.48;28.85;31.71;;
72805;Laerm;60920;48.748;19.142;2023-12-07T02:01:11;30.48;28.86;31.77;;
72805;Laerm;60920;48.748;19.142;2023-12-07T02:03:40;30.47;29.05;31.67;;
72805;Laerm;60920;48.748;19.142;2023-12-07T02:06:05;30.48;29.20;31.73;;
72805;Laerm;60920;48.748;19.142;2023-12-07T02:08:31;30.50;28.91;35.89;;
72805;Laerm;60920;48.748;19.142;2023-12-07T02:10:56;30.50;29.07;31.91;;
72805;Laerm;60920;48.748;19.142;2023-12-07T02:13:22;30.50;29.18;38.34;;
72805;Laerm;60920;48.748;19.142;2023-12-07T02:15:47;30.49;29.06;34.29;;
72805;Laerm;60920;48.748;19.142;2023-12-07T02:20:45;30.49;29.29;31.75;;
72805;Laerm;60920;48.748;19.142;2023-12-07T02:23:17;30.49;28.97;36.80;;
72805;Laerm;60920;48.748;19.142;2023-12-07T02:28:45;30.48;29.08;31.77;;
72805;Laerm;60920;48.748;19.142;2023-12-07T02:31:11;30.49;29.19;31.81;;
72805;Laerm;60920;48.748;19.142;2023-12-07T02:33:36;30.49;29.04;31.83;;
72805;Laerm;60920;48.748;19.142;2023-12-07T02:36:01;30.50;29.24;31.73;;
72805;Laerm;60920;48.748;19.142;2023-12-07T02:38:27;30.51;29.12;35.21;;
72805;Laerm;60920;48.748;19.142;2023-12-07T02:40:53;30.51;29.20;31.69;;
72805;Laerm;60920;48.748;19.142;2023-12-07T02:43:19;30.50;29.32;31.87;;
72805;Laerm;60920;48.748;19.142;2023-12-07T02:45:44;30.50;29.19;31.68;;
72805;Laerm;60920;48.748;19.142;2023-12-07T02:48:10;30.50;29.27;31.81;;
72805;Laerm;60920;48.748;19.142;2023-12-07T02:50:36;30.50;29.16;31.90;;
72805;Laerm;60920;48.748;19.142;2023-12-07T02:53:01;30.50;29.13;31.68;;
72805;Laerm;60920;48.748;19.142;2023-12-07T02:55:26;30.49;29.13;36.36;;
72805;Laerm;60920;48.748;19.142;2023-12-07T02:57:52;30.49;29.11;31.76;;
72805;Laerm;60920;48.748;19.142;2023-12-07T03:00:17;30.49;29.19;31.87;;
72805;Laerm;60920;48.748;19.142;2023-12-07T03:02:43;30.47;29.15;31.70;;
72805;Laerm;60920;48.748;19.142;2023-12-07T03:05:08;30.49;29.05;31.90;;
72805;Laerm;60920;48.748;19.142;2023-12-07T03:07:34;30.49;28.86;31.67;;
72805;Laerm;60920;48.748;19.142;2023-12-07T03:09:59;30.50;29.23;37.93;;
72805;Laerm;60920;48.748;19.142;2023-12-07T03:12:24;30.49;28.97;31.60;;
72805;Laerm;60920;48.748;19.142;2023-12-07T03:14:50;30.51;28.83;31.95;;
72805;Laerm;60920;48.748;19.142;2023-12-07T03:17:15;30.50;29.27;31.59;;
72805;Laerm;60920;48.748;19.142;2023-12-07T03:19:41;30.50;29.05;31.68;;
72805;Laerm;60920;48.748;19.142;2023-12-07T03:22:06;30.50;29.24;31.75;;
72805;Laerm;60920;48.748;19.142;2023-12-07T03:24:32;30.50;29.00;31.85;;
72805;Laerm;60920;48.748;19.142;2023-12-07T03:26:58;30.50;29.23;31.78;;
72805;Laerm;60920;48.748;19.142;2023-12-07T03:29:23;30.51;29.20;31.57;;
72805;Laerm;60920;48.748;19.142;2023-12-07T03:31:48;30.52;29.24;31.72;;
72805;Laerm;60920;48.748;19.142;2023-12-07T03:34:14;30.51;29.26;31.68;;
72805;Laerm;60920;48.748;19.142;2023-12-07T03:36:41;30.49;29.26;31.76;;
72805;Laerm;60920;48.748;19.142;2023-12-07T03:39:06;30.50;29.35;31.67;;
72805;Laerm;60920;48.748;19.142;2023-12-07T03:41:32;30.50;29.23;31.78;;
72805;Laerm;60920;48.748;19.142;2023-12-07T03:43:57;30.50;28.94;31.81;;
72805;Laerm;60920;48.748;19.142;2023-12-07T03:46:22;30.50;29.20;31.89;;
72805;Laerm;60920;48.748;19.142;2023-12-07T03:48:48;30.50;29.19;31.71;;
72805;Laerm;60920;48.748;19.142;2023-12-07T03:51:13;30.51;28.95;31.68;;
72805;Laerm;60920;48.748;19.142;2023-12-07T03:53:40;30.51;29.11;31.82;;
72805;Laerm;60920;48.748;19.142;2023-12-07T03:56:06;30.50;29.10;39.91;;
72805;Laerm;60920;48.748;19.142;2023-12-07T03:58:31;30.48;29.23;31.81;;
72805;Laerm;60920;48.748;19.142;2023-12-07T04:00:56;30.49;29.10;31.73;;
72805;Laerm;60920;48.748;19.142;2023-12-07T04:03:22;30.52;29.11;31.73;;
72805;Laerm;60920;48.748;19.142;2023-12-07T04:05:47;30.52;28.94;31.68;;
72805;Laerm;60920;48.748;19.142;2023-12-07T04:08:13;30.50;29.11;34.16;;
72805;Laerm;60920;48.748;19.142;2023-12-07T04:10:38;30.49;29.22;31.79;;
72805;Laerm;60920;48.748;19.142;2023-12-07T04:13:03;30.47;29.18;31.71;;
72805;Laerm;60920;48.748;19.142;2023-12-07T04:15:29;30.49;29.24;31.65;;
72805;Laerm;60920;48.748;19.142;2023-12-07T04:17:54;30.52;29.21;31.83;;
72805;Laerm;60920;48.748;19.142;2023-12-07T04:20:19;30.52;28.96;31.76;;
72805;Laerm;60920;48.748;19.142;2023-12-07T04:22:45;30.51;29.27;31.85;;
72805;Laerm;60920;48.748;19.142;2023-12-07T04:25:10;30.54;29.20;34.36;;
72805;Laerm;60920;48.748;19.142;2023-12-07T04:27:36;30.54;29.02;33.68;;
72805;Laerm;60920;48.748;19.142;2023-12-07T04:30:01;30.55;29.28;31.72;;
72805;Laerm;60920;48.748;19.142;2023-12-07T04:32:26;30.53;29.13;32.45;;
72805;Laerm;60920;48.748;19.142;2023-12-07T04:34:52;30.54;29.08;31.64;;
72805;Laerm;60920;48.748;19.142;2023-12-07T04:37:18;30.55;29.20;31.95;;
72805;Laerm;60920;48.748;19.142;2023-12-07T04:39:43;30.55;29.03;31.69;;
72805;Laerm;60920;48.748;19.142;2023-12-07T04:42:08;30.54;29.06;31.73;;
72805;Laerm;60920;48.748;19.142;2023-12-07T04:44:33;30.53;29.14;31.84;;
72805;Laerm;60920;48.748;19.142;2023-12-07T04:46:59;30.55;29.05;31.91;;
72805;Laerm;60920;48.748;19.142;2023-12-07T04:49:24;30.55;29.35;31.88;;
72805;Laerm;60920;48.748;19.142;2023-12-07T04:51:49;30.56;29.27;41.17;;
72805;Laerm;60920;48.748;19.142;2023-12-07T04:54:15;30.53;29.16;31.62;;
72805;Laerm;60920;48.748;19.142;2023-12-07T04:56:41;30.54;29.12;31.73;;
72805;Laerm;60920;48.748;19.142;2023-12-07T04:59:06;30.55;29.24;31.77;;
72805;Laerm;60920;48.748;19.142;2023-12-07T05:01:31;30.55;29.30;32.08;;
72805;Laerm;60920;48.748;19.142;2023-12-07T05:03:57;30.53;29.13;31.72;;
72805;Laerm;60920;48.748;19.142;2023-12-07T05:06:22;30.53;29.26;31.79;;
72805;Laerm;60920;48.748;19.142;2023-12-07T05:08:47;30.49;28.90;35.61;;
72805;Laerm;60920;48.748;19.142;2023-12-07T05:11:13;30.49;29.05;31.68;;
72805;Laerm;60920;48.748;19.142;2023-12-07T05:13:38;30.50;29.36;31.80;;
72805;Laerm;60920;48.748;19.142;2023-12-07T05:16:03;30.53;29.08;31.74;;
72805;Laerm;60920;48.748;19.142;2023-12-07T05:18:29;30.53;29.00;31.89;;
72805;Laerm;60920;48.748;19.142;2023-12-07T05:20:54;30.55;29.31;31.86;;
72805;Laerm;60920;48.748;19.142;2023-12-07T05:23:19;30.56;29.22;31.84;;
72805;Laerm;60920;48.748;19.142;2023-12-07T05:25:44;30.58;29.26;31.95;;
72805;Laerm;60920;48.748;19.142;2023-12-07T05:28:10;30.57;29.31;31.79;;
72805;Laerm;60920;48.748;19.142;2023-12-07T05:30:35;30.57;29.17;31.90;;
72805;Laerm;60920;48.748;19.142;2023-12-07T05:33:01;30.56;29.35;31.78;;
72805;Laerm;60920;48.748;19.142;2023-12-07T05:35:26;30.57;29.36;31.75;;
72805;Laerm;60920;48.748;19.142;2023-12-07T05:37:52;30.56;29.27;31.82;;
72805;Laerm;60920;48.748;19.142;2023-12-07T05:40:17;30.55;29.15;31.79;;
72805;Laerm;60920;48.748;19.142;2023-12-07T05:42:43;30.55;29.16;31.79;;
72805;Laerm;60920;48.748;19.142;2023-12-07T05:45:09;30.56;28.98;31.85;;
72805;Laerm;60920;48.748;19.142;2023-12-07T05:47:35;30.58;29.08;31.78;;
72805;Laerm;60920;48.748;19.142;2023-12-07T05:50:00;30.56;29.18;31.79;;
72805;Laerm;60920;48.748;19.142;2023-12-07T05:52:28;30.55;28.69;31.79;;
72805;Laerm;60920;48.748;19.142;2023-12-07T05:54:53;30.55;29.36;31.72;;
72805;Laerm;60920;48.748;19.142;2023-12-07T05:57:18;30.57;28.69;31.68;;
72805;Laerm;60920;48.748;19.142;2023-12-07T05:59:44;30.58;29.29;31.79;;
72805;Laerm;60920;48.748;19.142;2023-12-07T06:02:09;30.79;29.36;51.97;;
72805;Laerm;60920;48.748;19.142;2023-12-07T06:04:35;30.56;29.22;31.80;;
72805;Laerm;60920;48.748;19.142;2023-12-07T06:07:00;30.56;29.27;31.97;;
72805;Laerm;60920;48.748;19.142;2023-12-07T06:09:25;30.55;29.33;31.80;;
72805;Laerm;60920;48.748;19.142;2023-12-07T06:11:51;30.53;29.09;31.68;;
72805;Laerm;60920;48.748;19.142;2023-12-07T06:14:16;30.54;29.10;31.82;;
72805;Laerm;60920;48.748;19.142;2023-12-07T06:16:41;30.54;29.29;31.98;;
72805;Laerm;60920;48.748;19.142;2023-12-07T06:19:07;30.55;29.15;31.98;;
72805;Laerm;60920;48.748;19.142;2023-12-07T06:21:32;30.56;29.22;31.84;;
72805;Laerm;60920;48.748;19.142;2023-12-07T06:23:58;30.60;29.07;43.42;;
72805;Laerm;60920;48.748;19.142;2023-12-07T06:26:26;30.59;29.25;31.81;;
72805;Laerm;60920;48.748;19.142;2023-12-07T06:28:51;30.56;29.21;31.68;;
72805;Laerm;60920;48.748;19.142;2023-12-07T06:31:16;30.56;29.15;31.79;;
72805;Laerm;60920;48.748;19.142;2023-12-07T06:33:46;30.57;29.20;31.82;;
72805;Laerm;60920;48.748;19.142;2023-12-07T06:36:17;30.58;29.20;31.74;;
72805;Laerm;60920;48.748;19.142;2023-12-07T06:38:42;30.59;29.23;31.80;;
72805;Laerm;60920;48.748;19.142;2023-12-07T06:41:07;30.58;29.28;32.47;;
72805;Laerm;60920;48.748;19.142;2023-12-07T06:43:33;30.58;29.24;31.70;;
72805;Laerm;60920;48.748;19.142;2023-12-07T06:45:58;30.58;29.41;31.94;;
72805;Laerm;60920;48.748;19.142;2023-12-07T06:48:24;30.58;28.95;31.79;;
72805;Laerm;60920;48.748;19.142;2023-12-07T06:50:49;30.59;29.26;31.82;;
72805;Laerm;60920;48.748;19.142;2023-12-07T06:53:15;30.58;29.17;32.22;;
72805;Laerm;60920;48.748;19.142;2023-12-07T06:55:41;30.59;29.18;31.82;;
72805;Laerm;60920;48.748;19.142;2023-12-07T06:58:06;30.59;29.26;31.76;;
72805;Laerm;60920;48.748;19.142;2023-12-07T07:00:32;30.57;29.09;31.85;;
72805;Laerm;60920;48.748;19.142;2023-12-07T07:02:58;30.56;29.14;31.74;;
72805;Laerm;60920;48.748;19.142;2023-12-07T07:05:23;30.58;29.28;31.77;;
72805;Laerm;60920;48.748;19.142;2023-12-07T07:07:48;30.59;29.22;31.78;;
72805;Laerm;60920;48.748;19.142;2023-12-07T07:10:16;30.56;29.34;31.76;;
72805;Laerm;60920;48.748;19.142;2023-12-07T07:12:41;30.58;28.98;31.84;;
72805;Laerm;60920;48.748;19.142;2023-12-07T07:15:07;30.58;29.29;31.88;;
72805;Laerm;60920;48.748;19.142;2023-12-07T07:17:33;30.58;29.10;31.99;;
72805;Laerm;60920;48.748;19.142;2023-12-07T07:19:58;30.57;29.29;31.70;;
72805;Laerm;60920;48.748;19.142;2023-12-07T07:22:24;30.56;29.19;31.71;;
72805;Laerm;60920;48.748;19.142;2023-12-07T07:24:49;30.56;29.19;31.87;;
72805;Laerm;60920;48.748;19.142;2023-12-07T07:27:14;30.58;29.30;31.76;;
72805;Laerm;60920;48.748;19.142;2023-12-07T07:29:39;30.57;29.25;31.84;;
72805;Laerm;60920;48.748;19.142;2023-12-07T07:32:05;30.57;29.05;32.73;;
72805;Laerm;60920;48.748;19.142;2023-12-07T07:34:31;30.56;29.37;31.79;;
72805;Laerm;60920;48.748;19.142;2023-12-07T07:36:57;30.57;29.28;31.75;;
72805;Laerm;60920;48.748;19.142;2023-12-07T07:39:22;30.58;29.13;31.98;;
72805;Laerm;60920;48.748;19.142;2023-12-07T07:41:47;30.58;29.34;31.69;;
72805;Laerm;60920;48.748;19.142;2023-12-07T07:44:12;30.58;29.49;31.83;;
72805;Laerm;60920;48.748;19.142;2023-12-07T07:46:40;30.57;29.30;31.64;;
72805;Laerm;60920;48.748;19.142;2023-12-07T07:49:05;30.55;29.25;31.75;;
72805;Laerm;60920;48.748;19.142;2023-12-07T07:51:30;30.57;29.39;31.69;;
72805;Laerm;60920;48.748;19.142;2023-12-07T07:53:57;30.59;29.24;31.82;;
72805;Laerm;60920;48.748;19.142;2023-12-07T07:56:22;30.60;29.30;31.78;;
72805;Laerm;60920;48.748;19.142;2023-12-07T07:58:47;30.59;29.26;31.72;;
72805;Laerm;60920;48.748;19.142;2023-12-07T08:01:12;30.59;29.27;32.00;;
72805;Laerm;60920;48.748;19.142;2023-12-07T08:03:38;30.60;29.41;31.66;;
72805;Laerm;60920;48.748;19.142;2023-12-07T08:06:03;30.59;29.05;31.87;;
72805;Laerm;60920;48.748;19.142;2023-12-07T08:08:29;30.59;29.11;31.77;;
72805;Laerm;60920;48.748;19.142;2023-12-07T08:10:54;30.55;29.36;31.77;;
72805;Laerm;60920;48.748;19.142;2023-12-07T08:13:19;30.62;29.27;32.11;;
72805;Laerm;60920;48.748;19.142;2023-12-07T08:15:45;30.61;29.34;31.95;;
72805;Laerm;60920;48.748;19.142;2023-12-07T08:18:10;30.58;29.49;32.04;;
72805;Laerm;60920;48.748;19.142;2023-12-07T08:20:35;30.62;29.38;32.04;;
72805;Laerm;60920;48.748;19.142;2023-12-07T08:23:01;30.66;29.15;31.94;;
72805;Laerm;60920;48.748;19.142;2023-12-07T08:25:26;30.66;29.34;31.76;;
72805;Laerm;60920;48.748;19.142;2023-12-07T08:27:52;30.64;29.07;31.87;;
72805;Laerm;60920;48.748;19.142;2023-12-07T08:30:17;30.63;29.30;32.03;;
72805;Laerm;60920;48.748;19.142;2023-12-07T08:32:43;30.59;29.21;32.40;;
72805;Laerm;60920;48.748;19.142;2023-12-07T08:35:09;30.59;29.25;31.67;;
72805;Laerm;60920;48.748;19.142;2023-12-07T08:37:36;30.58;29.16;32.05;;
72805;Laerm;60920;48.748;19.142;2023-12-07T08:40:01;30.62;29.07;32.41;;
72805;Laerm;60920;48.748;19.142;2023-12-07T08:42:27;30.59;29.28;31.97;;
72805;Laerm;60920;48.748;19.142;2023-12-07T08:44:52;30.60;29.12;31.91;;
72805;Laerm;60920;48.748;19.142;2023-12-07T08:47:18;30.74;29.20;48.98;;
72805;Laerm;60920;48.748;19.142;2023-12-07T08:49:43;30.61;29.30;31.73;;
72805;Laerm;60920;48.748;19.142;2023-12-07T08:52:09;30.42;29.01;32.02;;
72805;Laerm;60920;48.748;19.142;2023-12-07T08:54:35;30.47;29.12;42.28;;
72805;Laerm;60920;48.748;19.142;2023-12-07T08:57:01;30.45;28.90;31.55;;
72805;Laerm;60920;48.748;19.142;2023-12-07T08:59:26;30.41;29.07;32.09;;
72805;Laerm;60920;48.748;19.142;2023-12-07T09:01:52;30.33;29.20;31.52;;
72805;Laerm;60920;48.748;19.142;2023-12-07T09:04:17;30.42;29.10;31.65;;
72805;Laerm;60920;48.748;19.142;2023-12-07T09:06:42;30.46;29.29;31.72;;
72805;Laerm;60920;48.748;19.142;2023-12-07T09:09:08;30.47;29.08;32.16;;
72805;Laerm;60920;48.748;19.142;2023-12-07T09:11:33;30.43;29.06;31.63;;
72805;Laerm;60920;48.748;19.142;2023-12-07T09:13:58;30.36;29.14;31.67;;
72805;Laerm;60920;48.748;19.142;2023-12-07T09:16:23;30.40;28.89;31.85;;
72805;Laerm;60920;48.748;19.142;2023-12-07T09:18:51;30.35;29.05;31.62;;
72805;Laerm;60920;48.748;19.142;2023-12-07T09:21:16;30.29;28.91;37.85;;
72805;Laerm;60920;48.748;19.142;2023-12-07T09:23:41;30.37;28.87;31.82;;
72805;Laerm;60920;48.748;19.142;2023-12-07T09:26:07;30.22;28.86;31.45;;
72805;Laerm;60920;48.748;19.142;2023-12-07T09:28:33;30.20;29.05;31.28;;
72805;Laerm;60920;48.748;19.142;2023-12-07T09:30:58;30.18;28.71;31.35;;
72805;Laerm;60920;48.748;19.142;2023-12-07T09:33:23;30.21;28.89;31.62;;
72805;Laerm;60920;48.748;19.142;2023-12-07T09:35:49;30.13;28.83;31.26;;
72805;Laerm;60920;48.748;19.142;2023-12-07T09:38:14;30.19;29.01;31.98;;
72805;Laerm;60920;48.748;19.142;2023-12-07T09:40:39;30.23;28.91;31.55;;
72805;Laerm;60920;48.748;19.142;2023-12-07T09:43:05;30.22;28.83;31.42;;
72805;Laerm;60920;48.748;19.142;2023-12-07T09:45:31;30.15;28.90;31.29;;
72805;Laerm;60920;48.748;19.142;2023-12-07T09:47:56;30.15;28.78;32.01;;
72805;Laerm;60920;48.748;19.142;2023-12-07T09:50:22;30.18;28.92;31.45;;
72805;Laerm;60920;48.748;19.142;2023-12-07T09:52:48;30.25;28.84;31.65;;
72805;Laerm;60920;48.748;19.142;2023-12-07T09:55:15;30.21;28.89;31.53;;
72805;Laerm;60920;48.748;19.142;2023-12-07T09:57:41;30.24;28.84;32.64;;
72805;Laerm;60920;48.748;19.142;2023-12-07T10:00:06;30.16;28.88;31.33;;
72805;Laerm;60920;48.748;19.142;2023-12-07T10:02:38;30.11;28.88;31.35;;
72805;Laerm;60920;48.748;19.142;2023-12-07T10:05:07;30.20;28.66;31.38;;
72805;Laerm;60920;48.748;19.142;2023-12-07T10:07:33;30.22;28.88;31.44;;
72805;Laerm;60920;48.748;19.142;2023-12-07T10:10:03;30.11;28.76;31.45;;
72805;Laerm;60920;48.748;19.142;2023-12-07T10:12:32;30.14;28.72;31.50;;
72805;Laerm;60920;48.748;19.142;2023-12-07T10:15:20;30.20;28.97;31.39;;
72805;Laerm;60920;48.748;19.142;2023-12-07T10:17:45;30.17;28.96;31.53;;
72805;Laerm;60920;48.748;19.142;2023-12-07T10:20:13;30.09;28.83;31.25;;
72805;Laerm;60920;48.748;19.142;2023-12-07T10:22:39;30.11;28.84;31.49;;
72805;Laerm;60920;48.748;19.142;2023-12-07T10:25:05;30.06;28.72;31.28;;
72805;Laerm;60920;48.748;19.142;2023-12-07T10:27:30;30.06;28.65;31.27;;
72805;Laerm;60920;48.748;19.142;2023-12-07T10:29:58;30.12;28.66;31.21;;
72805;Laerm;60920;48.748;19.142;2023-12-07T10:32:23;30.09;28.76;31.35;;
72805;Laerm;60920;48.748;19.142;2023-12-07T10:34:49;30.17;28.91;31.61;;
72805;Laerm;60920;48.748;19.142;2023-12-07T10:37:14;30.07;28.57;31.19;;
72805;Laerm;60920;48.748;19.142;2023-12-07T10:39:40;30.10;28.78;31.45;;
72805;Laerm;60920;48.748;19.142;2023-12-07T10:42:06;30.14;28.86;31.72;;
72805;Laerm;60920;48.748;19.142;2023-12-07T10:44:35;30.18;28.82;31.45;;
72805;Laerm;60920;48.748;19.142;2023-12-07T10:47:01;30.22;28.83;31.59;;
72805;Laerm;60920;48.748;19.142;2023-12-07T10:49:27;30.17;28.72;31.32;;
72805;Laerm;60920;48.748;19.142;2023-12-07T10:51:57;30.16;28.68;31.28;;
72805;Laerm;60920;48.748;19.142;2023-12-07T10:54:35;30.10;28.96;31.13;;
72805;Laerm;60920;48.748;19.142;2023-12-07T10:57:04;30.20;28.72;45.57;;
72805;Laerm;60920;48.748;19.142;2023-12-07T10:59:31;30.16;29.03;31.35;;
72805;Laerm;60920;48.748;19.142;2023-12-07T11:01:57;30.08;28.67;31.22;;
72805;Laerm;60920;48.748;19.142;2023-12-07T11:04:22;30.12;28.61;31.32;;
72805;Laerm;60920;48.748;19.142;2023-12-07T11:06:48;30.25;28.74;31.59;;
72805;Laerm;60920;48.748;19.142;2023-12-07T11:09:20;30.21;28.81;31.50;;
72805;Laerm;60920;48.748;19.142;2023-12-07T11:14:13;30.13;28.83;31.34;;
72805;Laerm;60920;48.748;19.142;2023-12-07T11:16:40;30.25;28.90;31.94;;
72805;Laerm;60920;48.748;19.142;2023-12-07T11:19:06;30.16;28.88;31.28;;
72805;Laerm;60920;48.748;19.142;2023-12-07T11:21:51;30.09;28.63;31.42;;
72805;Laerm;60920;48.748;19.142;2023-12-07T11:24:16;30.09;28.73;31.36;;
72805;Laerm;60920;48.748;19.142;2023-12-07T11:26:42;30.21;28.98;31.65;;
72805;Laerm;60920;48.748;19.142;2023-12-07T11:29:07;30.07;28.83;31.26;;
72805;Laerm;60920;48.748;19.142;2023-12-07T11:31:33;30.09;28.83;31.48;;
72805;Laerm;60920;48.748;19.142;2023-12-07T11:33:59;30.08;28.70;31.25;;
72805;Laerm;60920;48.748;19.142;2023-12-07T11:36:30;30.10;28.77;43.34;;
72805;Laerm;60920;48.748;19.142;2023-12-07T11:41:28;30.02;28.53;31.31;;
72805;Laerm;60920;48.748;19.142;2023-12-07T11:43:57;30.20;28.87;41.13;;
72805;Laerm;60920;48.748;19.142;2023-12-07T11:46:23;30.08;28.84;31.56;;
72805;Laerm;60920;48.748;19.142;2023-12-07T11:48:49;30.15;28.73;31.32;;
72805;Laerm;60920;48.748;19.142;2023-12-07T11:51:15;30.04;28.73;31.28;;
72805;Laerm;60920;48.748;19.142;2023-12-07T11:53:40;30.01;28.56;32.57;;
72805;Laerm;60920;48.748;19.142;2023-12-07T11:56:06;29.99;28.72;31.22;;
72805;Laerm;60920;48.748;19.142;2023-12-07T11:58:33;30.02;28.60;31.47;;
72805;Laerm;60920;48.748;19.142;2023-12-07T12:00:58;30.06;28.64;31.52;;
72805;Laerm;60920;48.748;19.142;2023-12-07T12:03:24;30.01;28.78;31.18;;
72805;Laerm;60920;48.748;19.142;2023-12-07T12:05:50;30.05;28.45;31.32;;
72805;Laerm;60920;48.748;19.142;2023-12-07T12:08:16;30.09;28.91;31.65;;
72805;Laerm;60920;48.748;19.142;2023-12-07T12:10:42;30.04;28.69;31.69;;
72805;Laerm;60920;48.748;19.142;2023-12-07T12:13:08;30.05;28.68;31.36;;
72805;Laerm;60920;48.748;19.142;2023-12-07T12:15:33;30.05;28.81;31.26;;
72805;Laerm;60920;48.748;19.142;2023-12-07T12:17:59;30.14;28.60;33.11;;
72805;Laerm;60920;48.748;19.142;2023-12-07T12:20:25;30.12;28.89;31.42;;
72805;Laerm;60920;48.748;19.142;2023-12-07T12:22:51;30.08;28.72;32.43;;
72805;Laerm;60920;48.748;19.142;2023-12-07T12:25:22;30.09;28.87;31.75;;
72805;Laerm;60920;48.748;19.142;2023-12-07T12:27:50;30.16;28.73;31.68;;
72805;Laerm;60920;48.748;19.142;2023-12-07T12:30:16;30.20;28.48;32.55;;
72805;Laerm;60920;48.748;19.142;2023-12-07T12:32:45;30.16;28.87;31.64;;
72805;Laerm;60920;48.748;19.142;2023-12-07T12:35:10;30.08;28.80;31.33;;
72805;Laerm;60920;48.748;19.142;2023-12-07T12:37:41;30.10;28.58;31.41;;
72805;Laerm;60920;48.748;19.142;2023-12-07T12:40:08;30.05;28.81;31.95;;
72805;Laerm;60920;48.748;19.142;2023-12-07T12:42:33;30.06;28.53;31.36;;
72805;Laerm;60920;48.748;19.142;2023-12-07T12:44:59;30.08;28.72;31.33;;
72805;Laerm;60920;48.748;19.142;2023-12-07T12:47:25;30.08;28.80;31.31;;
72805;Laerm;60920;48.748;19.142;2023-12-07T12:49:50;30.06;28.54;31.25;;
72805;Laerm;60920;48.748;19.142;2023-12-07T12:52:15;30.07;28.80;31.33;;
72805;Laerm;60920;48.748;19.142;2023-12-07T12:54:44;30.13;28.90;33.34;;
72805;Laerm;60920;48.748;19.142;2023-12-07T12:57:10;30.11;28.78;31.31;;
72805;Laerm;60920;48.748;19.142;2023-12-07T12:59:35;30.12;28.72;31.84;;
72805;Laerm;60920;48.748;19.142;2023-12-07T13:02:02;30.08;28.44;31.77;;
72805;Laerm;60920;48.748;19.142;2023-12-07T13:04:29;30.11;28.83;31.29;;
72805;Laerm;60920;48.748;19.142;2023-12-07T13:06:55;30.12;28.81;43.38;;
72805;Laerm;60920;48.748;19.142;2023-12-07T13:09:20;30.08;28.66;31.32;;
72805;Laerm;60920;48.748;19.142;2023-12-07T13:11:46;30.12;28.95;31.59;;
72805;Laerm;60920;48.748;19.142;2023-12-07T13:14:12;30.11;28.83;31.24;;
72805;Laerm;60920;48.748;19.142;2023-12-07T13:16:37;30.10;28.68;31.54;;
72805;Laerm;60920;48.748;19.142;2023-12-07T13:19:02;30.10;28.68;31.41;;
72805;Laerm;60920;48.748;19.142;2023-12-07T13:21:28;30.14;28.75;31.50;;
72805;Laerm;60920;48.748;19.142;2023-12-07T13:23:53;30.13;28.69;31.47;;
72805;Laerm;60920;48.748;19.142;2023-12-07T13:26:19;30.11;28.64;31.59;;
72805;Laerm;60920;48.748;19.142;2023-12-07T13:28:44;30.16;28.89;31.21;;
72805;Laerm;60920;48.748;19.142;2023-12-07T13:31:09;30.12;28.82;31.40;;
72805;Laerm;60920;48.748;19.142;2023-12-07T13:33:34;30.11;28.97;31.33;;